PWSweather.com
Personal Weather Stations
Station Observations
KAZPHOEN90
RayThunderhill, Phoenix, AZ

RayThunderhillPhoenix, AZ

Lat: 33.312, Lon: -112.029

Elevation: 1260

Station Type: Davis Vantage VUE

High Low Average
Temperature 89.2°F31.8°C 77.1°F25.1°C 81.9°F27.7°C
Dew Point 73.7°F23.2°C 66.6°F19.2°C 69.2°F20.7°C
Winds 2.3 mph 3.7 kmh Calm Calm Calm SWCalm SW
Wind Gusts 4.0 mph6.4 kmh -- 1.0 mph1.6 kmh
Humidity 83% 52% 66%
Pressure 29.73 in1006.8 mb 29.62 in1003.0 mb -
Precipitation 0.06 in1.5 mm - -
Hour Temp Dew Point Humidity Winds Wind Gusts Pressure Precip Precip Rate Daily Precip Total
12:00 AM 81.7°F27.6°C 66.9°F19.4°C 61% 0.1 mph W0.2 kmh W 1.0 mph1.6 kmh 29.73 in1006.8 mb 0.00 in0.0 mm 0.00 in/hr0.0 mm/hr 0.00 in0.0 mm
12:15 AM 81.5°F27.5°C 66.8°F19.3°C 61% Calm Calm -- 29.72 in1006.4 mb 0.00 in0.0 mm 0.00 in/hr0.0 mm/hr 0.00 in0.0 mm
12:30 AM 81.3°F27.4°C 66.6°F19.2°C 61% Calm Calm -- 29.72 in1006.4 mb 0.00 in0.0 mm 0.00 in/hr0.0 mm/hr 0.00 in0.0 mm
12:45 AM 81.3°F27.4°C 66.6°F19.2°C 61% 0.1 mph N0.2 kmh N 1.0 mph1.6 kmh 29.72 in1006.4 mb 0.00 in0.0 mm 0.00 in/hr0.0 mm/hr 0.00 in0.0 mm
01:00 AM 80.9°F27.2°C 67.2°F19.6°C 63% Calm Calm 1.0 mph1.6 kmh 29.72 in1006.4 mb 0.00 in0.0 mm 0.00 in/hr0.0 mm/hr 0.00 in0.0 mm
01:15 AM 80.6°F27.0°C 66.8°F19.3°C 63% Calm Calm -- 29.71 in1006.1 mb 0.00 in0.0 mm 0.00 in/hr0.0 mm/hr 0.00 in0.0 mm
01:30 AM 80.5°F26.9°C 66.7°F19.3°C 63% Calm Calm -- 29.72 in1006.4 mb 0.00 in0.0 mm 0.00 in/hr0.0 mm/hr 0.00 in0.0 mm
01:45 AM 80.5°F26.9°C 66.7°F19.3°C 63% Calm Calm -- 29.72 in1006.4 mb 0.00 in0.0 mm 0.00 in/hr0.0 mm/hr 0.00 in0.0 mm
02:00 AM 80.3°F26.8°C 67.0°F19.4°C 64% Calm Calm -- 29.71 in1006.1 mb 0.00 in0.0 mm 0.00 in/hr0.0 mm/hr 0.00 in0.0 mm
02:15 AM 80.5°F26.9°C 67.2°F19.6°C 64% Calm Calm -- 29.72 in1006.4 mb 0.00 in0.0 mm 0.00 in/hr0.0 mm/hr 0.00 in0.0 mm
02:30 AM 79.9°F26.6°C 67.5°F19.7°C 66% Calm Calm -- 29.71 in1006.1 mb 0.00 in0.0 mm 0.00 in/hr0.0 mm/hr 0.00 in0.0 mm
02:45 AM 79.4°F26.3°C 67.9°F19.9°C 68% Calm Calm -- 29.70 in1005.8 mb 0.00 in0.0 mm 0.00 in/hr0.0 mm/hr 0.00 in0.0 mm
03:00 AM 79.4°F26.3°C 68.3°F20.2°C 69% Calm Calm -- 29.70 in1005.8 mb 0.00 in0.0 mm 0.00 in/hr0.0 mm/hr 0.00 in0.0 mm
03:15 AM 79.2°F26.2°C 67.7°F19.8°C 68% Calm Calm -- 29.70 in1005.8 mb 0.00 in0.0 mm 0.00 in/hr0.0 mm/hr 0.00 in0.0 mm
03:30 AM 79.2°F26.2°C 68.1°F20.1°C 69% Calm Calm -- 29.70 in1005.8 mb 0.00 in0.0 mm 0.00 in/hr0.0 mm/hr 0.00 in0.0 mm
03:45 AM 79.2°F26.2°C 67.7°F19.8°C 68% Calm Calm -- 29.70 in1005.8 mb 0.00 in0.0 mm 0.00 in/hr0.0 mm/hr 0.00 in0.0 mm
04:00 AM 79.2°F26.2°C 68.6°F20.3°C 70% Calm Calm -- 29.70 in1005.8 mb 0.00 in0.0 mm 0.00 in/hr0.0 mm/hr 0.00 in0.0 mm
04:15 AM 78.9°F26.1°C 68.7°F20.4°C 71% Calm Calm -- 29.70 in1005.8 mb 0.00 in0.0 mm 0.00 in/hr0.0 mm/hr 0.00 in0.0 mm
04:30 AM 78.7°F25.9°C 68.9°F20.5°C 72% 0.7 mph NW1.1 kmh NW 3.0 mph4.8 kmh 29.69 in1005.4 mb 0.00 in0.0 mm 0.00 in/hr0.0 mm/hr 0.00 in0.0 mm
04:45 AM 78.3°F25.7°C 68.9°F20.5°C 73% Calm Calm -- 29.69 in1005.4 mb 0.00 in0.0 mm 0.00 in/hr0.0 mm/hr 0.00 in0.0 mm
05:00 AM 78.1°F25.6°C 67.9°F19.9°C 71% 0.1 mph S0.2 kmh S 1.0 mph1.6 kmh 29.69 in1005.4 mb 0.00 in0.0 mm 0.00 in/hr0.0 mm/hr 0.00 in0.0 mm
05:15 AM 78.5°F25.8°C 68.3°F20.2°C 71% Calm Calm -- 29.69 in1005.4 mb 0.00 in0.0 mm 0.00 in/hr0.0 mm/hr 0.00 in0.0 mm
05:30 AM 78.3°F25.7°C 68.1°F20.1°C 71% Calm Calm 1.0 mph1.6 kmh 29.69 in1005.4 mb 0.00 in0.0 mm 0.00 in/hr0.0 mm/hr 0.00 in0.0 mm
05:45 AM 78.3°F25.7°C 68.5°F20.3°C 72% Calm Calm -- 29.69 in1005.4 mb 0.00 in0.0 mm 0.00 in/hr0.0 mm/hr 0.00 in0.0 mm
06:00 AM 78.1°F25.6°C 69.1°F20.6°C 74% Calm Calm -- 29.69 in1005.4 mb 0.00 in0.0 mm 0.00 in/hr0.0 mm/hr 0.00 in0.0 mm
06:15 AM 77.4°F25.2°C 69.6°F20.9°C 77% 0.1 mph NNW0.2 kmh NNW 1.0 mph1.6 kmh 29.69 in1005.4 mb 0.00 in0.0 mm 0.00 in/hr0.0 mm/hr 0.00 in0.0 mm
06:30 AM 77.1°F25.1°C 69.7°F20.9°C 78% Calm Calm 1.0 mph1.6 kmh 29.69 in1005.4 mb 0.00 in0.0 mm 0.00 in/hr0.0 mm/hr 0.00 in0.0 mm
06:45 AM 77.1°F25.1°C 69.7°F20.9°C 78% 0.1 mph N0.2 kmh N 1.0 mph1.6 kmh 29.69 in1005.4 mb 0.00 in0.0 mm 0.00 in/hr0.0 mm/hr 0.00 in0.0 mm
07:00 AM 77.5°F25.3°C 69.7°F20.9°C 77% 0.2 mph NNW0.3 kmh NNW 2.0 mph3.2 kmh 29.70 in1005.8 mb 0.00 in0.0 mm 0.00 in/hr0.0 mm/hr 0.00 in0.0 mm
07:15 AM 77.8°F25.4°C 69.6°F20.9°C 76% 0.4 mph NW0.6 kmh NW 2.0 mph3.2 kmh 29.70 in1005.8 mb 0.00 in0.0 mm 0.00 in/hr0.0 mm/hr 0.00 in0.0 mm
07:30 AM 78.1°F25.6°C 69.6°F20.9°C 75% Calm Calm -- 29.70 in1005.8 mb 0.00 in0.0 mm 0.00 in/hr0.0 mm/hr 0.00 in0.0 mm
07:45 AM 78.6°F25.9°C 69.6°F20.9°C 74% 0.2 mph SSW0.3 kmh SSW 1.0 mph1.6 kmh 29.70 in1005.8 mb 0.00 in0.0 mm 0.00 in/hr0.0 mm/hr 0.00 in0.0 mm
08:00 AM 79.1°F26.2°C 70.1°F21.2°C 74% 0.2 mph NNW0.3 kmh NNW 1.0 mph1.6 kmh 29.70 in1005.8 mb 0.00 in0.0 mm 0.00 in/hr0.0 mm/hr 0.00 in0.0 mm
08:15 AM 80.1°F26.7°C 70.3°F21.3°C 72% Calm Calm -- 29.70 in1005.8 mb 0.00 in0.0 mm 0.00 in/hr0.0 mm/hr 0.00 in0.0 mm
08:30 AM 80.9°F27.2°C 70.2°F21.2°C 70% Calm Calm -- 29.71 in1006.1 mb 0.00 in0.0 mm 0.00 in/hr0.0 mm/hr 0.00 in0.0 mm
08:45 AM 81.5°F27.5°C 69.9°F21.1°C 68% Calm Calm -- 29.71 in1006.1 mb 0.00 in0.0 mm 0.00 in/hr0.0 mm/hr 0.00 in0.0 mm
09:00 AM 82.6°F28.1°C 70.5°F21.4°C 67% Calm Calm -- 29.71 in1006.1 mb 0.00 in0.0 mm 0.00 in/hr0.0 mm/hr 0.00 in0.0 mm
09:15 AM 82.8°F28.2°C 70.3°F21.3°C 66% Calm Calm -- 29.73 in1006.8 mb 0.00 in0.0 mm 0.00 in/hr0.0 mm/hr 0.00 in0.0 mm
09:30 AM 83.7°F28.7°C 70.7°F21.5°C 65% Calm Calm -- 29.72 in1006.4 mb 0.00 in0.0 mm 0.00 in/hr0.0 mm/hr 0.00 in0.0 mm
09:45 AM 83.9°F28.8°C 69.9°F21.1°C 63% Calm Calm -- 29.72 in1006.4 mb 0.00 in0.0 mm 0.00 in/hr0.0 mm/hr 0.00 in0.0 mm
10:00 AM 84.8°F29.3°C 69.9°F21.1°C 61% Calm Calm -- 29.72 in1006.4 mb 0.00 in0.0 mm 0.00 in/hr0.0 mm/hr 0.00 in0.0 mm
10:15 AM 85.1°F29.5°C 69.7°F20.9°C 60% 0.1 mph NNE0.2 kmh NNE 2.0 mph3.2 kmh 29.72 in1006.4 mb 0.00 in0.0 mm 0.00 in/hr0.0 mm/hr 0.00 in0.0 mm
10:30 AM 85.0°F29.4°C 69.1°F20.6°C 59% Calm Calm -- 29.73 in1006.8 mb 0.00 in0.0 mm 0.00 in/hr0.0 mm/hr 0.00 in0.0 mm
10:45 AM 86.6°F30.3°C 70.0°F21.1°C 58% 0.1 mph E0.2 kmh E 1.0 mph1.6 kmh 29.72 in1006.4 mb 0.00 in0.0 mm 0.00 in/hr0.0 mm/hr 0.00 in0.0 mm
11:00 AM 87.2°F30.7°C 69.1°F20.6°C 55% 0.2 mph SE0.3 kmh SE 1.0 mph1.6 kmh 29.72 in1006.4 mb 0.00 in0.0 mm 0.00 in/hr0.0 mm/hr 0.00 in0.0 mm
11:15 AM 86.6°F30.3°C 69.0°F20.6°C 56% 0.2 mph SE0.3 kmh SE 1.0 mph1.6 kmh 29.73 in1006.8 mb 0.00 in0.0 mm 0.00 in/hr0.0 mm/hr 0.00 in0.0 mm
11:30 AM 88.1°F31.2°C 68.8°F20.4°C 53% 0.1 mph WSW0.2 kmh WSW 1.0 mph1.6 kmh 29.71 in1006.1 mb 0.00 in0.0 mm 0.00 in/hr0.0 mm/hr 0.00 in0.0 mm
11:45 AM 89.2°F31.8°C 69.3°F20.7°C 52% 0.1 mph SE0.2 kmh SE 1.0 mph1.6 kmh 29.71 in1006.1 mb 0.00 in0.0 mm 0.00 in/hr0.0 mm/hr 0.00 in0.0 mm
12:00 PM 86.8°F30.4°C 68.7°F20.4°C 55% 2.3 mph ESE3.7 kmh ESE 4.0 mph6.4 kmh 29.71 in1006.1 mb 0.00 in0.0 mm 0.00 in/hr0.0 mm/hr 0.00 in0.0 mm
12:15 PM 86.4°F30.2°C 69.9°F21.1°C 58% Calm Calm -- 29.70 in1005.8 mb 0.00 in0.0 mm 0.00 in/hr0.0 mm/hr 0.00 in0.0 mm
12:30 PM 87.5°F30.8°C 69.4°F20.8°C 55% Calm Calm -- 29.70 in1005.8 mb 0.00 in0.0 mm 0.00 in/hr0.0 mm/hr 0.00 in0.0 mm
12:45 PM 87.7°F30.9°C 70.5°F21.4°C 57% 1.0 mph W1.6 kmh W 1.0 mph1.6 kmh 29.70 in1005.8 mb 0.00 in0.0 mm 0.00 in/hr0.0 mm/hr 0.00 in0.0 mm
01:00 PM 83.9°F28.8°C 73.5°F23.1°C 71% 1.6 mph N2.6 kmh N 4.0 mph6.4 kmh 29.70 in1005.8 mb 0.00 in0.0 mm 0.00 in/hr0.0 mm/hr 0.00 in0.0 mm
01:15 PM 80.0°F26.7°C 73.7°F23.2°C 81% Calm Calm -- 29.70 in1005.8 mb 0.04 in1.0 mm 0.16 in/hr4.1 mm/hr 0.04 in1.0 mm
01:30 PM 78.9°F26.1°C 73.3°F22.9°C 83% 0.9 mph WSW1.4 kmh WSW 3.0 mph4.8 kmh 29.69 in1005.4 mb 0.03 in0.8 mm 0.12 in/hr3.0 mm/hr 0.06 in1.5 mm
01:45 PM 78.7°F25.9°C 72.7°F22.6°C 82% 0.2 mph WSW0.3 kmh WSW 1.0 mph1.6 kmh 29.68 in1005.1 mb 0.00 in0.0 mm 0.00 in/hr0.0 mm/hr 0.06 in1.5 mm
02:00 PM 79.0°F26.1°C 71.5°F21.9°C 78% 0.3 mph SSW0.5 kmh SSW 1.0 mph1.6 kmh 29.68 in1005.1 mb 0.00 in0.0 mm 0.00 in/hr0.0 mm/hr 0.06 in1.5 mm
02:15 PM 79.7°F26.5°C 72.2°F22.3°C 78% 0.4 mph SW0.6 kmh SW 1.0 mph1.6 kmh 29.68 in1005.1 mb 0.00 in0.0 mm 0.00 in/hr0.0 mm/hr 0.06 in1.5 mm
02:30 PM 80.5°F26.9°C 71.4°F21.9°C 74% 0.1 mph W0.2 kmh W 1.0 mph1.6 kmh 29.67 in1004.7 mb 0.00 in0.0 mm 0.00 in/hr0.0 mm/hr 0.06 in1.5 mm
02:45 PM 81.6°F27.6°C 69.6°F20.9°C 67% Calm Calm 1.0 mph1.6 kmh 29.66 in1004.4 mb 0.00 in0.0 mm 0.00 in/hr0.0 mm/hr 0.06 in1.5 mm
03:00 PM 82.6°F28.1°C 70.1°F21.2°C 66% Calm Calm -- 29.66 in1004.4 mb 0.00 in0.0 mm 0.00 in/hr0.0 mm/hr 0.06 in1.5 mm
03:15 PM 83.7°F28.7°C 72.4°F22.4°C 69% Calm Calm -- 29.66 in1004.4 mb 0.00 in0.0 mm 0.00 in/hr0.0 mm/hr 0.06 in1.5 mm
03:30 PM 84.3°F29.1°C 72.6°F22.6°C 68% Calm Calm -- 29.65 in1004.1 mb 0.00 in0.0 mm 0.00 in/hr0.0 mm/hr 0.06 in1.5 mm
03:45 PM 86.5°F30.3°C 72.8°F22.7°C 64% Calm Calm -- 29.65 in1004.1 mb 0.00 in0.0 mm 0.00 in/hr0.0 mm/hr 0.06 in1.5 mm
04:00 PM 87.0°F30.6°C 71.0°F21.7°C 59% 1.9 mph NW3.1 kmh NW 3.0 mph4.8 kmh 29.64 in1003.7 mb 0.00 in0.0 mm 0.00 in/hr0.0 mm/hr 0.06 in1.5 mm
04:15 PM 88.1°F31.2°C 70.9°F21.6°C 57% 0.3 mph ESE0.5 kmh ESE 1.0 mph1.6 kmh 29.64 in1003.7 mb 0.00 in0.0 mm 0.00 in/hr0.0 mm/hr 0.06 in1.5 mm
04:30 PM 87.9°F31.1°C 70.8°F21.6°C 57% Calm Calm -- 29.63 in1003.4 mb 0.00 in0.0 mm 0.00 in/hr0.0 mm/hr 0.06 in1.5 mm
04:45 PM 88.0°F31.1°C 70.4°F21.3°C 56% 0.4 mph ESE0.6 kmh ESE 2.0 mph3.2 kmh 29.64 in1003.7 mb 0.00 in0.0 mm 0.00 in/hr0.0 mm/hr 0.06 in1.5 mm
05:00 PM 88.2°F31.2°C 70.0°F21.1°C 55% 0.2 mph NW0.3 kmh NW 1.0 mph1.6 kmh 29.63 in1003.4 mb 0.00 in0.0 mm 0.00 in/hr0.0 mm/hr 0.06 in1.5 mm
05:15 PM 88.1°F31.2°C 71.0°F21.7°C 57% 0.5 mph E0.8 kmh E 2.0 mph3.2 kmh 29.63 in1003.4 mb 0.00 in0.0 mm 0.00 in/hr0.0 mm/hr 0.06 in1.5 mm
05:30 PM 87.7°F30.9°C 70.1°F21.2°C 56% Calm Calm -- 29.63 in1003.4 mb 0.00 in0.0 mm 0.00 in/hr0.0 mm/hr 0.06 in1.5 mm
05:45 PM 86.8°F30.4°C 69.7°F20.9°C 57% 0.1 mph NW0.2 kmh NW 1.0 mph1.6 kmh 29.63 in1003.4 mb 0.00 in0.0 mm 0.00 in/hr0.0 mm/hr 0.06 in1.5 mm
06:00 PM 85.8°F29.9°C 69.3°F20.7°C 58% Calm Calm -- 29.62 in1003.0 mb 0.00 in0.0 mm 0.00 in/hr0.0 mm/hr 0.06 in1.5 mm
06:15 PM 84.8°F29.3°C 68.9°F20.5°C 59% Calm Calm -- 29.63 in1003.4 mb 0.00 in0.0 mm 0.00 in/hr0.0 mm/hr 0.06 in1.5 mm
06:30 PM 83.9°F28.8°C 68.0°F20.0°C 59% 0.1 mph NW0.2 kmh NW 1.0 mph1.6 kmh 29.63 in1003.4 mb 0.00 in0.0 mm 0.00 in/hr0.0 mm/hr 0.06 in1.5 mm
06:45 PM 83.3°F28.5°C 67.5°F19.7°C 59% 0.8 mph NW1.3 kmh NW 2.0 mph3.2 kmh 29.64 in1003.7 mb 0.00 in0.0 mm 0.00 in/hr0.0 mm/hr 0.06 in1.5 mm
07:00 PM 82.8°F28.2°C 68.0°F20.0°C 61% Calm Calm -- 29.63 in1003.4 mb 0.00 in0.0 mm 0.00 in/hr0.0 mm/hr 0.06 in1.5 mm
07:15 PM 82.5°F28.1°C 67.7°F19.8°C 61% Calm Calm 1.0 mph1.6 kmh 29.63 in1003.4 mb 0.00 in0.0 mm 0.00 in/hr0.0 mm/hr 0.06 in1.5 mm
07:30 PM 81.9°F27.7°C 68.1°F20.1°C 63% Calm Calm -- 29.63 in1003.4 mb 0.00 in0.0 mm 0.00 in/hr0.0 mm/hr 0.06 in1.5 mm
07:45 PM 81.6°F27.6°C 68.7°F20.4°C 65% 0.2 mph N0.3 kmh N -- 29.64 in1003.7 mb 0.00 in0.0 mm 0.00 in/hr0.0 mm/hr 0.06 in1.5 mm
08:00 PM 81.1°F27.3°C 68.7°F20.4°C 66% Calm Calm -- 29.64 in1003.7 mb 0.00 in0.0 mm 0.00 in/hr0.0 mm/hr 0.06 in1.5 mm
08:15 PM 80.5°F26.9°C 68.5°F20.3°C 67% Calm Calm -- 29.64 in1003.7 mb 0.00 in0.0 mm 0.00 in/hr0.0 mm/hr 0.06 in1.5 mm
08:30 PM 80.3°F26.8°C 68.7°F20.4°C 68% Calm Calm -- 29.64 in1003.7 mb 0.00 in0.0 mm 0.00 in/hr0.0 mm/hr 0.06 in1.5 mm
08:45 PM 80.0°F26.7°C 68.4°F20.2°C 68% Calm Calm -- 29.64 in1003.7 mb 0.00 in0.0 mm 0.00 in/hr0.0 mm/hr 0.06 in1.5 mm
09:00 PM 79.6°F26.4°C 69.0°F20.6°C 70% Calm Calm -- 29.64 in1003.7 mb 0.00 in0.0 mm 0.00 in/hr0.0 mm/hr 0.06 in1.5 mm
09:15 PM 79.6°F26.4°C 69.0°F20.6°C 70% Calm Calm -- 29.65 in1004.1 mb 0.00 in0.0 mm 0.00 in/hr0.0 mm/hr 0.06 in1.5 mm
09:30 PM 79.9°F26.6°C 69.3°F20.7°C 70% Calm Calm -- 29.64 in1003.7 mb 0.00 in0.0 mm 0.00 in/hr0.0 mm/hr 0.06 in1.5 mm
09:45 PM 80.1°F26.7°C 68.6°F20.3°C 68% 0.4 mph N0.6 kmh N 1.0 mph1.6 kmh 29.64 in1003.7 mb 0.00 in0.0 mm 0.00 in/hr0.0 mm/hr 0.06 in1.5 mm
10:00 PM 80.6°F27.0°C 68.2°F20.1°C 66% 0.3 mph NNW0.5 kmh NNW 1.0 mph1.6 kmh 29.64 in1003.7 mb 0.00 in0.0 mm 0.00 in/hr0.0 mm/hr 0.06 in1.5 mm
10:15 PM 80.9°F27.2°C 68.0°F20.0°C 65% 1.6 mph NW2.6 kmh NW 2.0 mph3.2 kmh 29.64 in1003.7 mb 0.00 in0.0 mm 0.00 in/hr0.0 mm/hr 0.06 in1.5 mm
10:30 PM 81.1°F27.3°C 67.7°F19.8°C 64% 0.7 mph SE1.1 kmh SE 1.0 mph1.6 kmh 29.64 in1003.7 mb 0.00 in0.0 mm 0.00 in/hr0.0 mm/hr 0.06 in1.5 mm
10:45 PM 80.8°F27.1°C 67.9°F19.9°C 65% 0.5 mph NW0.8 kmh NW 2.0 mph3.2 kmh 29.64 in1003.7 mb 0.00 in0.0 mm 0.00 in/hr0.0 mm/hr 0.06 in1.5 mm
11:00 PM 80.2°F26.8°C 67.8°F19.9°C 66% Calm Calm -- 29.64 in1003.7 mb 0.00 in0.0 mm 0.00 in/hr0.0 mm/hr 0.06 in1.5 mm
11:15 PM 79.9°F26.6°C 68.0°F20.0°C 67% 0.3 mph NW0.5 kmh NW 1.0 mph1.6 kmh 29.64 in1003.7 mb 0.00 in0.0 mm 0.00 in/hr0.0 mm/hr 0.06 in1.5 mm
11:30 PM 79.4°F26.3°C 67.5°F19.7°C 67% Calm Calm -- 29.64 in1003.7 mb 0.00 in0.0 mm 0.00 in/hr0.0 mm/hr 0.06 in1.5 mm
11:45 PM 78.9°F26.1°C 67.0°F19.4°C 67% Calm Calm -- 29.64 in1003.7 mb 0.00 in0.0 mm 0.00 in/hr0.0 mm/hr 0.06 in1.5 mm